sensor_id;sensor_type;location;lat;lon;timestamp;P1;durP1;ratioP1;P2;durP2;ratioP2
49488;SDS011;35382;51.484;11.476;2022-07-15T00:01:19;13.50;;;12.70;;
49488;SDS011;35382;51.484;11.476;2022-07-15T00:03:00;14.57;;;13.57;;
49488;SDS011;35382;51.484;11.476;2022-07-15T00:04:42;15.80;;;14.85;;
49488;SDS011;35382;51.484;11.476;2022-07-15T00:06:23;15.05;;;14.15;;
49488;SDS011;35382;51.484;11.476;2022-07-15T00:08:04;14.25;;;13.35;;
49488;SDS011;35382;51.484;11.476;2022-07-15T00:09:45;15.73;;;14.73;;
49488;SDS011;35382;51.484;11.476;2022-07-15T00:11:44;13.43;;;12.52;;
49488;SDS011;35382;51.484;11.476;2022-07-15T00:13:25;16.23;;;15.43;;
49488;SDS011;35382;51.484;11.476;2022-07-15T00:15:06;15.57;;;14.57;;
49488;SDS011;35382;51.484;11.476;2022-07-15T00:16:48;18.63;;;17.50;;
49488;SDS011;35382;51.484;11.476;2022-07-15T00:18:29;17.73;;;16.63;;
49488;SDS011;35382;51.484;11.476;2022-07-15T00:20:11;19.75;;;18.67;;
49488;SDS011;35382;51.484;11.476;2022-07-15T00:21:52;17.08;;;16.17;;
49488;SDS011;35382;51.484;11.476;2022-07-15T00:23:33;16.55;;;15.68;;
49488;SDS011;35382;51.484;11.476;2022-07-15T00:25:15;18.67;;;17.58;;
49488;SDS011;35382;51.484;11.476;2022-07-15T00:26:56;17.23;;;16.27;;
49488;SDS011;35382;51.484;11.476;2022-07-15T00:28:37;18.65;;;17.55;;
49488;SDS011;35382;51.484;11.476;2022-07-15T00:30:18;17.83;;;16.70;;
49488;SDS011;35382;51.484;11.476;2022-07-15T00:32:00;16.55;;;15.20;;
49488;SDS011;35382;51.484;11.476;2022-07-15T00:33:41;15.73;;;14.73;;
49488;SDS011;35382;51.484;11.476;2022-07-15T00:35:22;16.65;;;15.55;;
49488;SDS011;35382;51.484;11.476;2022-07-15T00:37:03;16.63;;;15.68;;
49488;SDS011;35382;51.484;11.476;2022-07-15T00:38:44;18.75;;;17.73;;
49488;SDS011;35382;51.484;11.476;2022-07-15T00:40:25;17.02;;;15.98;;
49488;SDS011;35382;51.484;11.476;2022-07-15T00:42:06;16.38;;;15.45;;
49488;SDS011;35382;51.484;11.476;2022-07-15T00:43:47;17.40;;;16.48;;
49488;SDS011;35382;51.484;11.476;2022-07-15T00:45:28;16.75;;;15.90;;
49488;SDS011;35382;51.484;11.476;2022-07-15T00:47:09;17.25;;;16.25;;
49488;SDS011;35382;51.484;11.476;2022-07-15T00:48:50;18.48;;;17.38;;
49488;SDS011;35382;51.484;11.476;2022-07-15T00:50:31;16.90;;;15.90;;
49488;SDS011;35382;51.484;11.476;2022-07-15T00:52:12;16.35;;;15.20;;
49488;SDS011;35382;51.484;11.476;2022-07-15T00:53:53;18.50;;;17.40;;
49488;SDS011;35382;51.484;11.476;2022-07-15T00:55:42;16.58;;;15.68;;
49488;SDS011;35382;51.484;11.476;2022-07-15T00:57:25;17.55;;;16.45;;
49488;SDS011;35382;51.484;11.476;2022-07-15T00:59:07;18.33;;;17.23;;
49488;SDS011;35382;51.484;11.476;2022-07-15T01:00:50;18.00;;;16.92;;
49488;SDS011;35382;51.484;11.476;2022-07-15T01:02:32;18.40;;;17.27;;
49488;SDS011;35382;51.484;11.476;2022-07-15T01:04:14;18.67;;;17.75;;
49488;SDS011;35382;51.484;11.476;2022-07-15T01:05:58;18.27;;;17.38;;
49488;SDS011;35382;51.484;11.476;2022-07-15T01:07:39;19.55;;;18.55;;
49488;SDS011;35382;51.484;11.476;2022-07-15T01:09:20;19.80;;;18.63;;
49488;SDS011;35382;51.484;11.476;2022-07-15T01:11:02;20.20;;;18.90;;
49488;SDS011;35382;51.484;11.476;2022-07-15T01:12:45;22.10;;;20.98;;
49488;SDS011;35382;51.484;11.476;2022-07-15T01:14:28;23.33;;;22.15;;
49488;SDS011;35382;51.484;11.476;2022-07-15T01:16:09;24.80;;;23.50;;
49488;SDS011;35382;51.484;11.476;2022-07-15T01:17:51;24.50;;;23.10;;
49488;SDS011;35382;51.484;11.476;2022-07-15T01:19:32;24.58;;;23.38;;
49488;SDS011;35382;51.484;11.476;2022-07-15T01:21:13;26.33;;;25.02;;
49488;SDS011;35382;51.484;11.476;2022-07-15T01:22:55;27.45;;;26.17;;
49488;SDS011;35382;51.484;11.476;2022-07-15T01:24:40;29.15;;;27.83;;
49488;SDS011;35382;51.484;11.476;2022-07-15T01:26:27;30.38;;;28.88;;
49488;SDS011;35382;51.484;11.476;2022-07-15T01:28:08;30.52;;;28.98;;
49488;SDS011;35382;51.484;11.476;2022-07-15T01:29:49;29.92;;;28.55;;
49488;SDS011;35382;51.484;11.476;2022-07-15T01:31:30;32.05;;;30.65;;
49488;SDS011;35382;51.484;11.476;2022-07-15T01:33:15;29.75;;;28.25;;
49488;SDS011;35382;51.484;11.476;2022-07-15T01:34:56;30.70;;;29.25;;
49488;SDS011;35382;51.484;11.476;2022-07-15T01:36:39;33.88;;;32.17;;
49488;SDS011;35382;51.484;11.476;2022-07-15T01:38:20;38.00;;;35.95;;
49488;SDS011;35382;51.484;11.476;2022-07-15T01:40:06;35.63;;;33.95;;
49488;SDS011;35382;51.484;11.476;2022-07-15T01:41:48;38.88;;;37.05;;
49488;SDS011;35382;51.484;11.476;2022-07-15T01:43:32;36.67;;;35.00;;
49488;SDS011;35382;51.484;11.476;2022-07-15T01:45:13;34.33;;;32.80;;
49488;SDS011;35382;51.484;11.476;2022-07-15T01:46:55;39.25;;;37.35;;
49488;SDS011;35382;51.484;11.476;2022-07-15T01:48:41;32.92;;;31.42;;
49488;SDS011;35382;51.484;11.476;2022-07-15T01:51:01;26.00;;;24.67;;
49488;SDS011;35382;51.484;11.476;2022-07-15T01:52:42;28.23;;;26.67;;
49488;SDS011;35382;51.484;11.476;2022-07-15T01:54:24;29.38;;;28.02;;
49488;SDS011;35382;51.484;11.476;2022-07-15T01:56:07;35.80;;;34.10;;
49488;SDS011;35382;51.484;11.476;2022-07-15T01:57:49;40.92;;;39.08;;
49488;SDS011;35382;51.484;11.476;2022-07-15T01:59:30;36.97;;;35.08;;
49488;SDS011;35382;51.484;11.476;2022-07-15T02:01:11;39.25;;;37.35;;
49488;SDS011;35382;51.484;11.476;2022-07-15T02:05:22;33.92;;;32.33;;
49488;SDS011;35382;51.484;11.476;2022-07-15T02:07:05;45.67;;;43.60;;
49488;SDS011;35382;51.484;11.476;2022-07-15T02:08:48;45.13;;;42.97;;
49488;SDS011;35382;51.484;11.476;2022-07-15T02:10:32;53.47;;;51.17;;
49488;SDS011;35382;51.484;11.476;2022-07-15T02:12:31;46.05;;;43.95;;
49488;SDS011;35382;51.484;11.476;2022-07-15T02:14:12;59.72;;;57.00;;
49488;SDS011;35382;51.484;11.476;2022-07-15T02:15:54;61.55;;;58.92;;
49488;SDS011;35382;51.484;11.476;2022-07-15T02:17:36;69.32;;;66.45;;
49488;SDS011;35382;51.484;11.476;2022-07-15T02:19:17;74.53;;;71.55;;
49488;SDS011;35382;51.484;11.476;2022-07-15T02:20:57;80.70;;;77.63;;
49488;SDS011;35382;51.484;11.476;2022-07-15T02:22:38;80.68;;;77.43;;
49488;SDS011;35382;51.484;11.476;2022-07-15T02:24:19;68.05;;;65.25;;
49488;SDS011;35382;51.484;11.476;2022-07-15T02:26:00;55.05;;;52.45;;
49488;SDS011;35382;51.484;11.476;2022-07-15T02:27:42;55.20;;;52.78;;
49488;SDS011;35382;51.484;11.476;2022-07-15T02:29:23;57.80;;;55.28;;
49488;SDS011;35382;51.484;11.476;2022-07-15T02:31:04;58.63;;;56.03;;
49488;SDS011;35382;51.484;11.476;2022-07-15T02:32:49;58.00;;;55.13;;
49488;SDS011;35382;51.484;11.476;2022-07-15T02:34:30;53.75;;;51.55;;
49488;SDS011;35382;51.484;11.476;2022-07-15T02:36:11;54.03;;;51.53;;
49488;SDS011;35382;51.484;11.476;2022-07-15T02:37:54;55.70;;;53.40;;
49488;SDS011;35382;51.484;11.476;2022-07-15T02:39:35;51.90;;;49.60;;
49488;SDS011;35382;51.484;11.476;2022-07-15T02:41:16;54.95;;;52.65;;
49488;SDS011;35382;51.484;11.476;2022-07-15T02:43:00;48.55;;;46.13;;
49488;SDS011;35382;51.484;11.476;2022-07-15T02:44:43;50.75;;;48.53;;
49488;SDS011;35382;51.484;11.476;2022-07-15T02:46:25;46.70;;;44.58;;
49488;SDS011;35382;51.484;11.476;2022-07-15T02:48:07;50.63;;;48.22;;
49488;SDS011;35382;51.484;11.476;2022-07-15T02:49:54;48.85;;;46.67;;
49488;SDS011;35382;51.484;11.476;2022-07-15T02:51:35;54.28;;;51.78;;
49488;SDS011;35382;51.484;11.476;2022-07-15T02:53:16;55.28;;;52.67;;
49488;SDS011;35382;51.484;11.476;2022-07-15T02:54:58;55.30;;;52.88;;
49488;SDS011;35382;51.484;11.476;2022-07-15T02:56:39;53.08;;;50.83;;
49488;SDS011;35382;51.484;11.476;2022-07-15T02:58:20;54.42;;;52.00;;
49488;SDS011;35382;51.484;11.476;2022-07-15T03:00:04;50.20;;;47.75;;
49488;SDS011;35382;51.484;11.476;2022-07-15T03:01:46;49.53;;;47.08;;
49488;SDS011;35382;51.484;11.476;2022-07-15T03:03:28;55.20;;;52.75;;
49488;SDS011;35382;51.484;11.476;2022-07-15T03:05:10;50.05;;;47.80;;
49488;SDS011;35382;51.484;11.476;2022-07-15T03:06:52;52.70;;;50.50;;
49488;SDS011;35382;51.484;11.476;2022-07-15T03:08:34;50.92;;;48.60;;
49488;SDS011;35382;51.484;11.476;2022-07-15T03:10:15;43.83;;;41.80;;
49488;SDS011;35382;51.484;11.476;2022-07-15T03:11:57;47.72;;;45.60;;
49488;SDS011;35382;51.484;11.476;2022-07-15T03:13:39;46.08;;;43.92;;
49488;SDS011;35382;51.484;11.476;2022-07-15T03:15:20;48.80;;;46.70;;
49488;SDS011;35382;51.484;11.476;2022-07-15T03:17:01;45.10;;;43.08;;
49488;SDS011;35382;51.484;11.476;2022-07-15T03:18:42;47.13;;;45.03;;
49488;SDS011;35382;51.484;11.476;2022-07-15T03:20:23;47.60;;;45.35;;
49488;SDS011;35382;51.484;11.476;2022-07-15T03:22:05;51.58;;;49.38;;
49488;SDS011;35382;51.484;11.476;2022-07-15T03:23:49;53.67;;;51.08;;
49488;SDS011;35382;51.484;11.476;2022-07-15T03:25:31;55.75;;;53.17;;
49488;SDS011;35382;51.484;11.476;2022-07-15T03:27:17;47.83;;;45.72;;
49488;SDS011;35382;51.484;11.476;2022-07-15T03:28:58;50.45;;;48.20;;
49488;SDS011;35382;51.484;11.476;2022-07-15T03:30:42;52.78;;;50.38;;
49488;SDS011;35382;51.484;11.476;2022-07-15T03:32:25;61.20;;;58.55;;
49488;SDS011;35382;51.484;11.476;2022-07-15T03:34:06;72.35;;;69.35;;
49488;SDS011;35382;51.484;11.476;2022-07-15T03:35:50;66.60;;;63.78;;
49488;SDS011;35382;51.484;11.476;2022-07-15T03:37:32;67.07;;;64.03;;
49488;SDS011;35382;51.484;11.476;2022-07-15T03:39:14;65.35;;;62.70;;
49488;SDS011;35382;51.484;11.476;2022-07-15T03:40:55;65.40;;;62.35;;
49488;SDS011;35382;51.484;11.476;2022-07-15T03:42:36;68.70;;;65.88;;
49488;SDS011;35382;51.484;11.476;2022-07-15T03:44:17;73.55;;;70.53;;
49488;SDS011;35382;51.484;11.476;2022-07-15T03:46:00;72.70;;;69.47;;
49488;SDS011;35382;51.484;11.476;2022-07-15T03:47:42;65.60;;;62.55;;
49488;SDS011;35382;51.484;11.476;2022-07-15T03:49:27;72.72;;;69.75;;
49488;SDS011;35382;51.484;11.476;2022-07-15T03:51:08;71.32;;;68.13;;
49488;SDS011;35382;51.484;11.476;2022-07-15T03:52:49;68.18;;;65.07;;
49488;SDS011;35382;51.484;11.476;2022-07-15T03:54:30;69.20;;;66.07;;
49488;SDS011;35382;51.484;11.476;2022-07-15T03:56:11;78.20;;;74.70;;
49488;SDS011;35382;51.484;11.476;2022-07-15T03:57:53;69.40;;;66.30;;
49488;SDS011;35382;51.484;11.476;2022-07-15T03:59:35;68.78;;;65.70;;
49488;SDS011;35382;51.484;11.476;2022-07-15T04:01:16;66.65;;;63.65;;
49488;SDS011;35382;51.484;11.476;2022-07-15T04:02:57;69.22;;;66.03;;
49488;SDS011;35382;51.484;11.476;2022-07-15T04:04:39;70.97;;;67.97;;
49488;SDS011;35382;51.484;11.476;2022-07-15T04:06:20;66.68;;;63.80;;
49488;SDS011;35382;51.484;11.476;2022-07-15T04:08:02;68.80;;;65.93;;
49488;SDS011;35382;51.484;11.476;2022-07-15T04:09:43;74.90;;;71.57;;
49488;SDS011;35382;51.484;11.476;2022-07-15T04:11:24;69.40;;;66.45;;
49488;SDS011;35382;51.484;11.476;2022-07-15T04:13:05;73.35;;;70.15;;
49488;SDS011;35382;51.484;11.476;2022-07-15T04:14:46;66.72;;;63.83;;
49488;SDS011;35382;51.484;11.476;2022-07-15T04:16:31;62.67;;;59.67;;
49488;SDS011;35382;51.484;11.476;2022-07-15T04:18:20;64.57;;;61.67;;
49488;SDS011;35382;51.484;11.476;2022-07-15T04:20:01;79.13;;;75.72;;
49488;SDS011;35382;51.484;11.476;2022-07-15T04:21:43;93.07;;;89.38;;
49488;SDS011;35382;51.484;11.476;2022-07-15T04:23:24;87.78;;;84.18;;
49488;SDS011;35382;51.484;11.476;2022-07-15T04:25:06;67.20;;;64.40;;
49488;SDS011;35382;51.484;11.476;2022-07-15T04:26:48;70.03;;;66.75;;
49488;SDS011;35382;51.484;11.476;2022-07-15T04:28:31;60.58;;;57.75;;
49488;SDS011;35382;51.484;11.476;2022-07-15T04:30:11;63.58;;;60.83;;
49488;SDS011;35382;51.484;11.476;2022-07-15T04:31:58;62.97;;;60.13;;
49488;SDS011;35382;51.484;11.476;2022-07-15T04:33:44;64.90;;;61.95;;
49488;SDS011;35382;51.484;11.476;2022-07-15T04:35:25;70.05;;;67.15;;
49488;SDS011;35382;51.484;11.476;2022-07-15T04:37:13;64.65;;;61.85;;
49488;SDS011;35382;51.484;11.476;2022-07-15T04:38:56;63.80;;;60.92;;
49488;SDS011;35382;51.484;11.476;2022-07-15T04:40:38;60.70;;;58.00;;
49488;SDS011;35382;51.484;11.476;2022-07-15T04:42:20;61.05;;;58.42;;
49488;SDS011;35382;51.484;11.476;2022-07-15T04:44:03;70.60;;;67.45;;
49488;SDS011;35382;51.484;11.476;2022-07-15T04:45:45;67.57;;;64.65;;
49488;SDS011;35382;51.484;11.476;2022-07-15T04:47:31;51.08;;;48.80;;
49488;SDS011;35382;51.484;11.476;2022-07-15T04:49:14;51.45;;;49.10;;
49488;SDS011;35382;51.484;11.476;2022-07-15T04:51:14;49.05;;;46.67;;
49488;SDS011;35382;51.484;11.476;2022-07-15T04:52:55;47.75;;;45.42;;
49488;SDS011;35382;51.484;11.476;2022-07-15T04:54:37;45.80;;;43.47;;
49488;SDS011;35382;51.484;11.476;2022-07-15T04:56:18;49.63;;;47.25;;
49488;SDS011;35382;51.484;11.476;2022-07-15T04:57:59;40.65;;;38.65;;
49488;SDS011;35382;51.484;11.476;2022-07-15T04:59:40;41.58;;;39.47;;
49488;SDS011;35382;51.484;11.476;2022-07-15T05:01:26;41.30;;;39.20;;
49488;SDS011;35382;51.484;11.476;2022-07-15T05:03:07;46.15;;;43.85;;
49488;SDS011;35382;51.484;11.476;2022-07-15T05:04:49;52.25;;;49.85;;
49488;SDS011;35382;51.484;11.476;2022-07-15T05:06:32;53.90;;;51.50;;
49488;SDS011;35382;51.484;11.476;2022-07-15T05:08:13;47.40;;;45.03;;
49488;SDS011;35382;51.484;11.476;2022-07-15T05:10:01;53.88;;;51.65;;
49488;SDS011;35382;51.484;11.476;2022-07-15T05:11:43;45.00;;;42.83;;
49488;SDS011;35382;51.484;11.476;2022-07-15T05:13:24;47.97;;;45.65;;
49488;SDS011;35382;51.484;11.476;2022-07-15T05:15:11;39.88;;;37.78;;
49488;SDS011;35382;51.484;11.476;2022-07-15T05:16:55;57.92;;;55.47;;
49488;SDS011;35382;51.484;11.476;2022-07-15T05:18:37;37.13;;;35.20;;
49488;SDS011;35382;51.484;11.476;2022-07-15T05:20:18;37.67;;;35.78;;
49488;SDS011;35382;51.484;11.476;2022-07-15T05:21:59;39.40;;;37.30;;
49488;SDS011;35382;51.484;11.476;2022-07-15T05:23:44;39.30;;;37.50;;
49488;SDS011;35382;51.484;11.476;2022-07-15T05:25:25;45.85;;;43.35;;
49488;SDS011;35382;51.484;11.476;2022-07-15T05:27:06;38.40;;;36.45;;
49488;SDS011;35382;51.484;11.476;2022-07-15T05:28:47;34.25;;;32.55;;
49488;SDS011;35382;51.484;11.476;2022-07-15T05:30:28;36.92;;;35.10;;
49488;SDS011;35382;51.484;11.476;2022-07-15T05:32:14;33.58;;;31.88;;
49488;SDS011;35382;51.484;11.476;2022-07-15T05:33:55;38.90;;;37.10;;
49488;SDS011;35382;51.484;11.476;2022-07-15T05:35:35;31.88;;;30.27;;
49488;SDS011;35382;51.484;11.476;2022-07-15T05:37:17;32.33;;;30.73;;
49488;SDS011;35382;51.484;11.476;2022-07-15T05:38:58;35.13;;;33.38;;
49488;SDS011;35382;51.484;11.476;2022-07-15T05:40:39;32.92;;;31.23;;
49488;SDS011;35382;51.484;11.476;2022-07-15T05:42:20;29.92;;;28.17;;
49488;SDS011;35382;51.484;11.476;2022-07-15T05:44:02;30.95;;;29.30;;
49488;SDS011;35382;51.484;11.476;2022-07-15T05:45:45;27.95;;;26.35;;
49488;SDS011;35382;51.484;11.476;2022-07-15T05:47:26;27.77;;;26.08;;
49488;SDS011;35382;51.484;11.476;2022-07-15T05:49:08;25.48;;;23.92;;
49488;SDS011;35382;51.484;11.476;2022-07-15T05:50:50;22.25;;;21.02;;
49488;SDS011;35382;51.484;11.476;2022-07-15T05:52:32;26.90;;;25.30;;
49488;SDS011;35382;51.484;11.476;2022-07-15T05:54:15;23.27;;;21.92;;
49488;SDS011;35382;51.484;11.476;2022-07-15T05:55:57;27.35;;;25.83;;
49488;SDS011;35382;51.484;11.476;2022-07-15T05:57:38;24.83;;;23.30;;
49488;SDS011;35382;51.484;11.476;2022-07-15T05:59:19;27.40;;;25.85;;
49488;SDS011;35382;51.484;11.476;2022-07-15T06:01:02;30.10;;;28.50;;
49488;SDS011;35382;51.484;11.476;2022-07-15T06:02:49;26.63;;;24.92;;
49488;SDS011;35382;51.484;11.476;2022-07-15T06:04:37;16.02;;;15.02;;
49488;SDS011;35382;51.484;11.476;2022-07-15T06:06:19;19.33;;;18.13;;
49488;SDS011;35382;51.484;11.476;2022-07-15T06:08:02;19.90;;;18.30;;
49488;SDS011;35382;51.484;11.476;2022-07-15T06:09:47;18.00;;;16.73;;
49488;SDS011;35382;51.484;11.476;2022-07-15T06:11:33;17.85;;;16.55;;
49488;SDS011;35382;51.484;11.476;2022-07-15T06:13:15;16.58;;;15.38;;
49488;SDS011;35382;51.484;11.476;2022-07-15T06:14:57;16.10;;;15.20;;
49488;SDS011;35382;51.484;11.476;2022-07-15T06:16:39;20.13;;;18.83;;
49488;SDS011;35382;51.484;11.476;2022-07-15T06:18:21;16.67;;;15.60;;
49488;SDS011;35382;51.484;11.476;2022-07-15T06:20:04;20.10;;;19.00;;
49488;SDS011;35382;51.484;11.476;2022-07-15T06:21:46;16.45;;;15.45;;
49488;SDS011;35382;51.484;11.476;2022-07-15T06:23:27;16.20;;;15.30;;
49488;SDS011;35382;51.484;11.476;2022-07-15T06:25:09;16.08;;;14.88;;
49488;SDS011;35382;51.484;11.476;2022-07-15T06:26:51;16.77;;;15.73;;
49488;SDS011;35382;51.484;11.476;2022-07-15T06:28:32;14.35;;;13.45;;
49488;SDS011;35382;51.484;11.476;2022-07-15T06:30:13;15.57;;;14.48;;
49488;SDS011;35382;51.484;11.476;2022-07-15T06:31:57;16.42;;;15.43;;
49488;SDS011;35382;51.484;11.476;2022-07-15T06:33:38;15.93;;;14.85;;
49488;SDS011;35382;51.484;11.476;2022-07-15T06:35:19;14.65;;;13.45;;
49488;SDS011;35382;51.484;11.476;2022-07-15T06:37:02;13.93;;;12.82;;
49488;SDS011;35382;51.484;11.476;2022-07-15T06:38:43;12.32;;;11.52;;
49488;SDS011;35382;51.484;11.476;2022-07-15T06:40:24;13.98;;;13.07;;
49488;SDS011;35382;51.484;11.476;2022-07-15T06:42:05;17.58;;;16.08;;
49488;SDS011;35382;51.484;11.476;2022-07-15T06:43:46;15.63;;;14.45;;
49488;SDS011;35382;51.484;11.476;2022-07-15T06:45:41;12.02;;;11.13;;
49488;SDS011;35382;51.484;11.476;2022-07-15T06:47:22;13.75;;;12.85;;
49488;SDS011;35382;51.484;11.476;2022-07-15T06:49:03;9.88;;;8.93;;
49488;SDS011;35382;51.484;11.476;2022-07-15T06:50:45;9.40;;;8.55;;
49488;SDS011;35382;51.484;11.476;2022-07-15T06:52:28;9.77;;;8.98;;
49488;SDS011;35382;51.484;11.476;2022-07-15T06:54:10;10.15;;;9.25;;
49488;SDS011;35382;51.484;11.476;2022-07-15T06:55:53;8.80;;;8.20;;
49488;SDS011;35382;51.484;11.476;2022-07-15T06:57:35;10.13;;;8.98;;
49488;SDS011;35382;51.484;11.476;2022-07-15T06:59:16;9.80;;;9.10;;
49488;SDS011;35382;51.484;11.476;2022-07-15T07:00:59;10.73;;;9.82;;
49488;SDS011;35382;51.484;11.476;2022-07-15T07:02:42;10.60;;;9.52;;
49488;SDS011;35382;51.484;11.476;2022-07-15T07:04:23;10.90;;;9.90;;
49488;SDS011;35382;51.484;11.476;2022-07-15T07:06:04;8.98;;;8.05;;
49488;SDS011;35382;51.484;11.476;2022-07-15T07:07:47;11.63;;;10.63;;
49488;SDS011;35382;51.484;11.476;2022-07-15T07:09:28;9.85;;;8.95;;
49488;SDS011;35382;51.484;11.476;2022-07-15T07:11:08;8.40;;;7.43;;
49488;SDS011;35382;51.484;11.476;2022-07-15T07:12:49;10.10;;;9.27;;
49488;SDS011;35382;51.484;11.476;2022-07-15T07:14:30;8.45;;;7.82;;
49488;SDS011;35382;51.484;11.476;2022-07-15T07:16:11;9.27;;;8.35;;
49488;SDS011;35382;51.484;11.476;2022-07-15T07:17:52;8.48;;;7.78;;
49488;SDS011;35382;51.484;11.476;2022-07-15T07:19:34;7.82;;;7.13;;
49488;SDS011;35382;51.484;11.476;2022-07-15T07:21:15;8.55;;;7.75;;
49488;SDS011;35382;51.484;11.476;2022-07-15T07:22:56;8.50;;;7.80;;
49488;SDS011;35382;51.484;11.476;2022-07-15T07:24:37;8.00;;;7.30;;
49488;SDS011;35382;51.484;11.476;2022-07-15T07:26:19;7.97;;;7.28;;
49488;SDS011;35382;51.484;11.476;2022-07-15T07:28:00;6.05;;;5.25;;
49488;SDS011;35382;51.484;11.476;2022-07-15T07:29:43;7.35;;;6.20;;
49488;SDS011;35382;51.484;11.476;2022-07-15T07:31:25;5.45;;;4.43;;
49488;SDS011;35382;51.484;11.476;2022-07-15T07:33:07;6.95;;;5.00;;
49488;SDS011;35382;51.484;11.476;2022-07-15T07:34:48;5.40;;;4.88;;
49488;SDS011;35382;51.484;11.476;2022-07-15T07:36:29;6.63;;;5.65;;
49488;SDS011;35382;51.484;11.476;2022-07-15T07:38:10;5.97;;;5.35;;
49488;SDS011;35382;51.484;11.476;2022-07-15T07:39:51;7.22;;;5.32;;
49488;SDS011;35382;51.484;11.476;2022-07-15T07:41:32;6.45;;;5.72;;
49488;SDS011;35382;51.484;11.476;2022-07-15T07:43:17;6.18;;;5.03;;
49488;SDS011;35382;51.484;11.476;2022-07-15T07:44:59;5.93;;;4.97;;
49488;SDS011;35382;51.484;11.476;2022-07-15T07:46:41;5.95;;;4.82;;
49488;SDS011;35382;51.484;11.476;2022-07-15T07:48:22;6.50;;;5.22;;
49488;SDS011;35382;51.484;11.476;2022-07-15T07:50:04;5.35;;;4.72;;
49488;SDS011;35382;51.484;11.476;2022-07-15T07:51:45;5.20;;;4.63;;
49488;SDS011;35382;51.484;11.476;2022-07-15T07:53:26;5.55;;;4.57;;
49488;SDS011;35382;51.484;11.476;2022-07-15T07:55:07;5.22;;;4.55;;
49488;SDS011;35382;51.484;11.476;2022-07-15T07:56:49;8.48;;;5.07;;
49488;SDS011;35382;51.484;11.476;2022-07-15T07:58:30;4.78;;;4.20;;
49488;SDS011;35382;51.484;11.476;2022-07-15T08:00:11;7.38;;;4.55;;
49488;SDS011;35382;51.484;11.476;2022-07-15T08:01:53;5.65;;;4.20;;
49488;SDS011;35382;51.484;11.476;2022-07-15T08:03:34;5.15;;;4.75;;
49488;SDS011;35382;51.484;11.476;2022-07-15T08:05:16;5.45;;;4.85;;
49488;SDS011;35382;51.484;11.476;2022-07-15T08:06:57;5.38;;;4.88;;
49488;SDS011;35382;51.484;11.476;2022-07-15T08:08:38;6.93;;;6.13;;
49488;SDS011;35382;51.484;11.476;2022-07-15T08:10:19;10.27;;;8.90;;
49488;SDS011;35382;51.484;11.476;2022-07-15T08:12:00;7.65;;;6.85;;
49488;SDS011;35382;51.484;11.476;2022-07-15T08:13:41;9.38;;;8.57;;
49488;SDS011;35382;51.484;11.476;2022-07-15T08:15:22;6.93;;;6.28;;
49488;SDS011;35382;51.484;11.476;2022-07-15T08:17:03;6.60;;;5.63;;
49488;SDS011;35382;51.484;11.476;2022-07-15T08:18:44;7.07;;;5.80;;
49488;SDS011;35382;51.484;11.476;2022-07-15T08:20:25;5.85;;;5.07;;
49488;SDS011;35382;51.484;11.476;2022-07-15T08:22:06;8.10;;;4.43;;
49488;SDS011;35382;51.484;11.476;2022-07-15T08:23:47;5.47;;;4.32;;
49488;SDS011;35382;51.484;11.476;2022-07-15T08:25:29;7.85;;;4.97;;
49488;SDS011;35382;51.484;11.476;2022-07-15T08:27:11;6.82;;;4.93;;
49488;SDS011;35382;51.484;11.476;2022-07-15T08:28:52;5.13;;;4.43;;
49488;SDS011;35382;51.484;11.476;2022-07-15T08:30:33;5.50;;;4.22;;
49488;SDS011;35382;51.484;11.476;2022-07-15T08:32:14;5.60;;;4.07;;
49488;SDS011;35382;51.484;11.476;2022-07-15T08:33:55;6.65;;;4.50;;
49488;SDS011;35382;51.484;11.476;2022-07-15T08:35:36;6.47;;;4.43;;
49488;SDS011;35382;51.484;11.476;2022-07-15T08:37:17;5.10;;;4.55;;
49488;SDS011;35382;51.484;11.476;2022-07-15T08:38:58;5.05;;;4.50;;
49488;SDS011;35382;51.484;11.476;2022-07-15T08:40:40;6.25;;;4.22;;
49488;SDS011;35382;51.484;11.476;2022-07-15T08:42:21;5.82;;;5.22;;
49488;SDS011;35382;51.484;11.476;2022-07-15T08:44:02;6.55;;;4.68;;
49488;SDS011;35382;51.484;11.476;2022-07-15T08:45:43;4.78;;;4.38;;
49488;SDS011;35382;51.484;11.476;2022-07-15T08:47:24;8.27;;;4.50;;
49488;SDS011;35382;51.484;11.476;2022-07-15T08:49:12;5.18;;;3.85;;
49488;SDS011;35382;51.484;11.476;2022-07-15T08:50:55;6.15;;;4.38;;
49488;SDS011;35382;51.484;11.476;2022-07-15T08:52:36;6.03;;;4.13;;
49488;SDS011;35382;51.484;11.476;2022-07-15T08:54:18;6.00;;;4.22;;
49488;SDS011;35382;51.484;11.476;2022-07-15T08:55:59;5.18;;;4.28;;
49488;SDS011;35382;51.484;11.476;2022-07-15T08:57:44;5.90;;;4.90;;
49488;SDS011;35382;51.484;11.476;2022-07-15T08:59:28;5.72;;;5.00;;
49488;SDS011;35382;51.484;11.476;2022-07-15T09:01:09;5.00;;;4.57;;
49488;SDS011;35382;51.484;11.476;2022-07-15T09:02:50;5.78;;;4.55;;
49488;SDS011;35382;51.484;11.476;2022-07-15T09:04:31;5.50;;;4.60;;
49488;SDS011;35382;51.484;11.476;2022-07-15T09:06:29;6.60;;;5.18;;
49488;SDS011;35382;51.484;11.476;2022-07-15T09:08:17;5.45;;;4.53;;
49488;SDS011;35382;51.484;11.476;2022-07-15T09:09:59;6.90;;;4.63;;
49488;SDS011;35382;51.484;11.476;2022-07-15T09:11:40;9.02;;;4.80;;
49488;SDS011;35382;51.484;11.476;2022-07-15T09:13:34;7.90;;;4.55;;
49488;SDS011;35382;51.484;11.476;2022-07-15T09:15:28;6.13;;;5.22;;
49488;SDS011;35382;51.484;11.476;2022-07-15T09:17:21;9.20;;;4.60;;
49488;SDS011;35382;51.484;11.476;2022-07-15T09:19:06;7.03;;;3.90;;
49488;SDS011;35382;51.484;11.476;2022-07-15T09:20:49;5.45;;;4.95;;
49488;SDS011;35382;51.484;11.476;2022-07-15T09:22:53;5.47;;;4.43;;
49488;SDS011;35382;51.484;11.476;2022-07-15T09:24:38;5.75;;;4.93;;
49488;SDS011;35382;51.484;11.476;2022-07-15T09:26:33;5.60;;;4.65;;
49488;SDS011;35382;51.484;11.476;2022-07-15T09:28:17;5.90;;;5.03;;
49488;SDS011;35382;51.484;11.476;2022-07-15T09:30:14;5.35;;;4.82;;
49488;SDS011;35382;51.484;11.476;2022-07-15T09:32:21;5.97;;;5.15;;
49488;SDS011;35382;51.484;11.476;2022-07-15T09:34:21;5.13;;;4.55;;
49488;SDS011;35382;51.484;11.476;2022-07-15T09:37:58;5.63;;;4.93;;
49488;SDS011;35382;51.484;11.476;2022-07-15T09:39:52;5.60;;;4.28;;
49488;SDS011;35382;51.484;11.476;2022-07-15T09:41:35;6.10;;;4.82;;
49488;SDS011;35382;51.484;11.476;2022-07-15T09:43:18;6.10;;;4.50;;
49488;SDS011;35382;51.484;11.476;2022-07-15T09:45:18;5.85;;;5.03;;
49488;SDS011;35382;51.484;11.476;2022-07-15T09:47:00;7.05;;;5.13;;
49488;SDS011;35382;51.484;11.476;2022-07-15T09:48:44;6.70;;;4.90;;
49488;SDS011;35382;51.484;11.476;2022-07-15T09:50:33;6.47;;;5.35;;
49488;SDS011;35382;51.484;11.476;2022-07-15T09:52:15;6.47;;;5.30;;
49488;SDS011;35382;51.484;11.476;2022-07-15T09:53:56;8.77;;;4.85;;
49488;SDS011;35382;51.484;11.476;2022-07-15T09:55:38;6.75;;;5.30;;
49488;SDS011;35382;51.484;11.476;2022-07-15T09:57:20;5.72;;;4.53;;
49488;SDS011;35382;51.484;11.476;2022-07-15T09:59:02;5.30;;;4.80;;
49488;SDS011;35382;51.484;11.476;2022-07-15T10:00:43;5.00;;;4.50;;
49488;SDS011;35382;51.484;11.476;2022-07-15T10:02:24;5.07;;;4.22;;